| time (UTC) | temp C | wind direction | speed KPH | gust KPH | rain 1hr cm | rain 24hr cm | rain mn cm | humidity % | barometer mb |
| 20260506142820 | 16 | 156 | 0.0 | 3.2 | 0.00 | 0.00 | 0.00 | 50 | 1011.4 |
| 20260506132807 | 11 | 167 | 0.0 | 3.2 | 0.00 | 0.00 | 0.00 | 65 | 1011.2 |
| 20260506122807 | 11 | 150 | 0.0 | 3.2 | 0.00 | 0.00 | 0.00 | 64 | 1010.8 |
| 20260506115523 | 11 | 169 | 0.0 | 3.2 | 0.00 | 0.00 | 0.00 | 62 | 1010.2 |
| 20260506102749 | 12 | 162 | 0.0 | 0.0 | 0.00 | 0.00 | 0.00 | 59 | 1009.8 |
| 20260506092733 | 13 | 149 | 0.0 | 3.2 | 0.00 | 0.00 | 0.00 | 54 | 1009.7 |
| 20260506082731 | 15 | 156 | 0.0 | 3.2 | 0.00 | 0.00 | 0.00 | 45 | 1009.7 |
| 20260506072719 | 15 | 171 | 0.0 | 8.0 | 0.00 | 0.00 | 0.00 | 41 | 1009.7 |
| 20260506042702 | 21 | 236 | 0.0 | 12.9 | 0.00 | 0.00 | 0.00 | 29 | 1008.1 |
| 20260506032648 | 22 | 163 | 0.0 | 8.0 | 0.00 | 0.00 | 0.00 | 28 | 1007.7 |
| 20260506022637 | 26 | 32 | 4.8 | 12.9 | 0.00 | 0.00 | 0.00 | 19 | 1007.6 |
| 20260506012633 | 27 | 113 | 0.0 | 12.9 | 0.00 | 0.00 | 0.00 | 18 | 1007.8 |
| 20260506002625 | 28 | 297 | 4.8 | 20.9 | 0.00 | 0.00 | 0.00 | 13 | 1008.1 |
| 20260505232614 | 27 | 9 | 4.8 | 16.1 | 0.00 | 0.00 | 0.00 | 18 | 1008.9 |
| 20260505222613 | 27 | 276 | 6.4 | 20.9 | 0.00 | 0.00 | 0.00 | 18 | 1009.5 |
| 20260505212558 | 26 | 348 | 3.2 | 16.1 | 0.00 | 0.00 | 0.00 | 19 | 1010.3 |
| 20260505202548 | 25 | 242 | 3.2 | 12.9 | 0.00 | 0.00 | 0.00 | 22 | 1011.2 |
| 20260505192545 | 22 | 3 | 4.8 | 16.1 | 0.00 | 0.00 | 0.00 | 26 | 1011.7 |
| 20260505182535 | 21 | 332 | 3.2 | 12.9 | 0.00 | 0.00 | 0.00 | 29 | 1012.6 |
| 20260505172533 | 20 | 278 | 3.2 | 12.9 | 0.00 | 0.00 | 0.00 | 32 | 1013.0 |
| 20260505162522 | 18 | 26 | 3.2 | 8.0 | 0.00 | 0.00 | 0.00 | 35 | 1013.4 |
| 20260505152510 | 16 | 263 | 0.0 | 12.9 | 0.00 | 0.00 | 0.00 | 42 | 1013.0 |